Time;durP1;ratioP1;P1;durP2;ratioP2;P2;SDS_P1;SDS_P2;PMS_P1;PMS_P2;Temp;Humidity;BMP_temperature;BMP_pressure;BME280_temperature;BME280_humidity;BME280_pressure;Samples;Min_cycle;Max_cycle;Signal;HPM_P1;HPM_P2
2022/10/04 00:01:13;;;;;;;3.27;2.33;;;;;;;11.01;75.55;100146.64;124797;1099;102203;-75
2022/10/04 00:03:48;;;;;;;3.60;2.67;;;;;;;10.97;75.03;100150.05;124819;1099;104265;-75
2022/10/04 00:06:24;;;;;;;2.87;2.47;;;;;;;10.94;74.92;100153.46;124784;1099;104162;-75
2022/10/04 00:09:00;;;;;;;5.87;2.70;;;;;;;10.92;74.88;100149.91;124791;1099;104341;-75
2022/10/04 00:11:34;;;;;;;4.53;2.53;;;;;;;10.92;74.98;100149.91;124777;1099;104188;-75
2022/10/04 00:14:10;;;;;;;7.43;2.47;;;;;;;10.90;75.40;100156.83;124798;1098;104195;-75
2022/10/04 00:16:43;;;;;;;2.80;2.20;;;;;;;10.88;75.59;100160.28;124803;1099;104277;-75
2022/10/04 00:19:40;;;;;;;4.10;2.50;;;;;;;10.86;76.08;100160.23;124863;1099;104334;-75
2022/10/04 00:22:16;;;;;;;3.90;2.47;;;;;;;10.82;75.59;100166.23;124794;1099;104211;-75
2022/10/04 00:25:21;;;;;;;5.53;2.63;;;;;;;10.80;75.39;100170.55;124813;1099;104185;-75
2022/10/04 00:28:17;;;;;;;3.20;2.50;;;;;;;10.76;76.28;100174.80;124672;1099;103603;-75
2022/10/04 00:31:11;;;;;;;5.03;2.60;;;;;;;10.71;76.46;100178.16;124753;1099;101928;-75
2022/10/04 00:33:44;;;;;;;4.40;2.50;;;;;;;10.67;76.19;100178.89;124773;1099;104220;-76
2022/10/04 00:36:55;;;;;;;4.67;2.83;;;;;;;10.63;76.04;100177.01;124775;1098;107466;-76
2022/10/04 00:39:44;;;;;;;5.27;2.60;;;;;;;10.58;76.12;100179.49;124785;1099;104211;-75
2022/10/04 00:42:28;;;;;;;8.37;2.83;;;;;;;10.56;76.34;100175.94;124837;1099;104274;-75
2022/10/04 00:45:03;;;;;;;4.97;2.90;;;;;;;10.53;76.47;100176.76;124847;1099;104210;-76
2022/10/04 00:47:56;;;;;;;5.20;2.90;;;;;;;10.49;76.84;100169.63;124850;1099;104223;-75
2022/10/04 00:50:34;;;;;;;3.57;2.60;;;;;;;10.48;77.06;100177.45;124812;1099;104255;-76
2022/10/04 00:53:18;;;;;;;6.60;2.80;;;;;;;10.43;76.45;100178.19;124825;1099;104233;-76
2022/10/04 00:55:50;;;;;;;;;;;;;;;10.41;77.10;100169.39;124782;1099;104163;-76
2022/10/04 00:58:27;;;;;;;5.00;2.60;;;;;;;10.37;76.87;100170.13;124889;1098;104198;-75
2022/10/04 01:00:59;;;;;;;4.67;2.60;;;;;;;10.33;76.65;100168.27;124801;1096;104272;-75
2022/10/04 01:03:37;;;;;;;5.27;2.80;;;;;;;10.31;77.07;100175.14;124690;1099;102785;-75
2022/10/04 01:06:11;;;;;;;5.73;2.90;;;;;;;10.29;76.85;100176.84;124839;1099;104095;-75
2022/10/04 01:08:49;;;;;;;3.33;2.80;;;;;;;10.26;77.36;100171.49;124737;1099;102164;-75
2022/10/04 01:11:24;;;;;;;4.90;2.83;;;;;;;10.25;76.83;100173.23;124826;1099;104224;-75
2022/10/04 01:14:02;;;;;;;3.67;2.63;;;;;;;10.25;76.45;100164.45;124840;1099;104366;-75
2022/10/04 01:16:35;;;;;;;3.37;2.70;;;;;;;10.23;76.88;100168.78;124820;1099;102210;-75
2022/10/04 01:19:26;;;;;;;3.77;2.60;;;;;;;10.21;76.63;100171.34;124818;1099;104261;-73
2022/10/04 01:22:10;;;;;;;4.87;2.67;;;;;;;10.18;77.00;100189.60;124753;1099;104184;-73
2022/10/04 01:24:43;;;;;;;9.87;3.00;;;;;;;10.15;76.97;100186.00;124838;1099;102120;-74
2022/10/04 01:27:41;;;;;;;3.80;2.50;;;;;;;10.12;76.61;100194.64;124810;1099;104331;-73
2022/10/04 01:30:16;;;;;;;5.00;2.50;;;;;;;10.10;77.22;100191.09;124766;1099;104335;-74
2022/10/04 01:32:47;;;;;;;3.03;2.50;;;;;;;10.07;77.13;100191.88;124780;1099;104245;-74
2022/10/04 01:35:19;;;;;;;5.37;2.87;;;;;;;10.07;77.37;100204.11;124765;1098;104929;-75
2022/10/04 01:37:50;;;;;;;4.37;2.80;;;;;;;10.01;76.61;100194.30;124863;1099;101835;-74
2022/10/04 01:40:21;;;;;;;4.37;2.50;;;;;;;10.00;76.57;100204.73;124837;1099;102165;-74
2022/10/04 01:42:59;;;;;;;5.43;2.50;;;;;;;10.01;76.70;100211.77;124775;1099;103750;-74
2022/10/04 01:45:36;;;;;;;3.53;2.60;;;;;;;9.98;77.21;100214.28;124869;1098;104243;-74
2022/10/04 01:48:11;;;;;;;5.30;2.80;;;;;;;9.96;76.95;100213.35;124794;1099;104261;-74
2022/10/04 01:50:47;;;;;;;6.03;2.80;;;;;;;9.94;76.61;100213.30;124823;1099;104160;-74
2022/10/04 01:53:23;;;;;;;3.07;2.40;;;;;;;9.93;77.13;100210.63;124877;1099;104159;-74
2022/10/04 01:56:03;;;;;;;5.50;2.70;;;;;;;9.91;76.46;100215.81;124786;1099;104326;-74
2022/10/04 01:58:43;;;;;;;5.03;2.80;;;;;;;9.90;76.94;100214.91;124894;1099;104188;-74
2022/10/04 02:01:20;;;;;;;7.00;2.87;;;;;;;9.91;77.17;100218.44;124764;1099;104163;-74
2022/10/04 02:03:58;;;;;;;4.60;2.73;;;;;;;9.92;77.28;100220.20;124854;1099;104185;-74
2022/10/04 02:06:30;;;;;;;5.17;2.57;;;;;;;9.91;76.44;100218.44;124911;1098;104229;-74
2022/10/04 02:09:08;;;;;;;3.03;2.50;;;;;;;9.90;77.11;100224.51;124822;1099;104648;-74
2022/10/04 02:11:41;;;;;;;4.55;2.65;;;;;;;9.90;77.25;100230.63;124863;1099;104194;-74
2022/10/04 02:14:18;;;;;;;4.67;2.57;;;;;;;9.89;76.78;100235.81;124850;1099;104249;-74
2022/10/04 02:16:52;;;;;;;3.73;2.53;;;;;;;9.87;76.52;100230.52;124840;1099;102828;-75
2022/10/04 02:19:27;;;;;;;3.20;2.60;;;;;;;9.87;77.23;100237.50;124803;1099;104166;-74
2022/10/04 02:22:01;;;;;;;3.67;2.63;;;;;;;9.85;76.50;100229.59;124839;1099;102330;-74
2022/10/04 02:24:36;;;;;;;3.37;2.45;;;;;;;9.84;76.75;100229.54;124886;1099;104185;-75
2022/10/04 02:27:07;;;;;;;2.70;2.20;;;;;;;9.84;77.12;100225.17;124867;1099;104207;-74
2022/10/04 02:29:39;;;;;;;3.23;2.67;;;;;;;9.83;77.14;100227.75;124925;1098;104267;-74
2022/10/04 02:35:04;;;;;;;4.77;2.60;;;;;;;9.79;76.45;100233.74;124866;1097;104214;-75
2022/10/04 02:37:38;;;;;;;2.80;2.50;;;;;;;9.78;76.32;100235.45;124864;1099;103633;-74
2022/10/04 02:40:13;;;;;;;5.17;2.80;;;;;;;9.79;76.47;100238.98;124968;1099;104268;-74
2022/10/04 02:42:54;;;;;;;4.47;2.70;;;;;;;9.78;76.44;100239.81;124914;1099;104217;-74
2022/10/04 02:45:29;;;;;;;3.17;2.57;;;;;;;9.77;76.88;100240.63;124884;1099;102968;-74
2022/10/04 02:48:06;;;;;;;5.10;2.47;;;;;;;9.74;76.67;100244.06;124814;1099;104204;-74
2022/10/04 02:50:44;;;;;;;3.77;2.40;;;;;;;9.73;77.05;100249.25;124946;1099;102781;-74
2022/10/04 02:53:26;;;;;;;4.10;2.60;;;;;;;9.69;76.83;100250.84;124906;1098;104186;-74
2022/10/04 02:55:58;;;;;;;5.23;2.90;;;;;;;9.65;77.01;100247.23;125008;1099;104220;-74
2022/10/04 02:58:30;;;;;;;6.73;2.80;;;;;;;9.62;76.69;100254.11;124872;1099;104335;-74
2022/10/04 03:01:02;;;;;;;4.70;2.80;;;;;;;9.59;77.46;100256.62;124711;1098;104226;-74
2022/10/04 03:03:37;;;;;;;3.00;2.70;;;;;;;9.55;77.01;100250.36;124912;1099;104558;-74
2022/10/04 03:06:11;;;;;;;6.70;2.90;;;;;;;9.51;76.76;100264.20;124832;1099;101796;-74
2022/10/04 03:08:49;;;;;;;4.90;3.00;;;;;;;9.47;77.70;100255.34;124830;1099;104268;-74
2022/10/04 03:11:24;;;;;;;3.87;2.70;;;;;;;9.44;77.79;100263.09;124790;1099;104233;-74
2022/10/04 03:13:58;;;;;;;3.93;3.20;;;;;;;9.39;77.66;100256.77;124738;1099;104235;-75
2022/10/04 03:16:37;;;;;;;9.17;3.00;;;;;;;9.34;77.38;100261.84;124864;1099;104242;-74
2022/10/04 03:19:10;;;;;;;5.33;3.37;;;;;;;9.30;77.93;100272.14;124753;1098;104252;-73
2022/10/04 03:21:47;;;;;;;7.80;3.60;;;;;;;9.25;77.90;100264.12;124805;1098;104211;-73
2022/10/04 03:24:22;;;;;;;5.70;3.20;;;;;;;9.22;77.89;100258.77;124708;1099;102203;-74
2022/10/04 03:26:55;;;;;;;6.50;3.63;;;;;;;9.20;77.79;100270.04;124736;1099;104381;-75
2022/10/04 03:29:30;;;;;;;12.43;3.90;;;;;;;9.16;77.63;100262.07;124794;1099;103620;-74
2022/10/04 03:32:04;;;;;;;7.80;3.27;;;;;;;9.13;77.66;100264.57;124799;1099;104278;-74
2022/10/04 03:34:38;;;;;;;6.90;3.60;;;;;;;9.10;77.63;100264.45;124837;1099;102827;-73
2022/10/04 03:37:14;;;;;;;5.47;3.40;;;;;;;9.11;78.00;100262.72;124693;1099;104179;-73
2022/10/04 03:39:48;;;;;;;8.60;3.93;;;;;;;9.09;78.04;100262.66;124773;1099;104322;-74
2022/10/04 03:42:23;;;;;;;5.33;3.40;;;;;;;9.10;78.37;100263.55;124816;1099;104244;-73
2022/10/04 03:44:57;;;;;;;8.63;3.60;;;;;;;9.11;77.87;100265.34;124755;1099;104197;-73
2022/10/04 03:47:31;;;;;;;6.85;3.52;;;;;;;9.11;77.69;100271.45;124816;1099;104293;-74
2022/10/04 03:50:06;;;;;;;6.03;3.77;;;;;;;9.12;78.10;100267.13;124753;1099;104329;-74
2022/10/04 03:52:39;;;;;;;10.87;4.30;;;;;;;9.13;77.77;100269.80;124771;1099;102335;-75
2022/10/04 03:55:14;;;;;;;7.70;4.00;;;;;;;9.11;77.65;100270.58;124740;1099;104443;-74
2022/10/04 03:57:47;;;;;;;11.37;5.33;;;;;;;9.09;78.01;100261.78;124820;1099;102826;-74
2022/10/04 04:00:19;;;;;;;13.17;5.63;;;;;;;9.08;77.75;100273.95;124825;1099;104214;-74
2022/10/04 04:02:57;;;;;;;13.43;6.43;;;;;;;9.07;78.17;100272.19;124781;1097;104264;-74
2022/10/04 04:05:31;;;;;;;14.33;7.20;;;;;;;9.05;78.43;100276.45;124744;1099;104239;-74
2022/10/04 04:08:07;;;;;;;15.23;7.40;;;;;;;9.04;78.31;100279.02;124770;1099;102165;-74
2022/10/04 04:10:43;;;;;;;15.93;7.67;;;;;;;9.03;78.26;100285.98;124688;1099;111920;-74
2022/10/04 04:13:27;;;;;;;12.90;6.70;;;;;;;9.04;77.78;100289.48;124765;1099;104248;-75
2022/10/04 04:16:00;;;;;;;11.20;5.93;;;;;;;9.05;79.04;100284.30;124772;1099;102788;-74
2022/10/04 04:18:34;;;;;;;11.03;6.12;;;;;;;9.04;78.00;100287.78;124741;1099;104265;-74
2022/10/04 04:21:07;;;;;;;11.63;5.73;;;;;;;9.06;78.27;100296.57;124766;1099;104169;-74
2022/10/04 04:23:41;;;;;;;11.30;5.47;;;;;;;9.06;78.71;100301.80;124737;1099;104271;-75
2022/10/04 04:26:23;;;;;;;13.03;6.20;;;;;;;9.04;78.33;100308.72;124794;1097;102794;-74
2022/10/04 04:29:02;;;;;;;11.57;5.50;;;;;;;9.01;78.74;100300.75;124770;1099;104323;-75
2022/10/04 04:31:37;;;;;;;11.13;5.37;;;;;;;9.01;79.49;100311.22;124674;1099;104235;-75
2022/10/04 04:34:18;;;;;;;11.03;5.87;;;;;;;8.99;78.87;100310.23;124727;1099;104172;-75
2022/10/04 04:36:51;;;;;;;15.53;5.97;;;;;;;8.97;79.19;100325.88;124765;1099;104201;-74
2022/10/04 04:39:39;;;;;;;14.43;6.07;;;;;;;8.96;79.45;100318.89;124830;1099;104163;-74
2022/10/04 04:42:18;;;;;;;10.83;5.23;;;;;;;8.98;79.71;100327.68;124736;1099;104663;-74
2022/10/04 04:44:52;;;;;;;12.83;5.77;;;;;;;8.98;78.89;100322.44;124775;1099;104456;-74
2022/10/04 04:47:33;;;;;;;14.60;6.30;;;;;;;9.01;79.22;100332.16;124752;1099;104223;-74
2022/10/04 04:50:08;;;;;;;11.47;5.63;;;;;;;9.04;79.09;100340.12;124763;1099;104224;-74
2022/10/04 04:52:43;;;;;;;10.73;5.13;;;;;;;9.08;79.72;100343.75;124795;1099;101854;-75
2022/10/04 04:55:21;;;;;;;12.10;5.87;;;;;;;9.12;79.59;100348.28;124772;1099;101929;-74
2022/10/04 04:57:55;;;;;;;11.67;5.30;;;;;;;9.16;79.46;100350.16;124726;1099;104169;-76
2022/10/04 05:00:34;;;;;;;10.63;5.57;;;;;;;9.20;79.66;100359.05;124852;1098;104063;-75
2022/10/04 05:03:17;;;;;;;14.57;5.50;;;;;;;9.26;79.75;100360.17;124755;1099;104528;-74
2022/10/04 05:05:49;;;;;;;12.73;5.83;;;;;;;9.29;79.42;100360.29;124791;1098;102768;-75
2022/10/04 05:08:25;;;;;;;12.13;5.67;;;;;;;9.35;79.21;100365.77;124743;1098;102293;-75
2022/10/04 05:11:06;;;;;;;13.47;5.83;;;;;;;9.44;79.80;100369.56;124716;1099;104281;-76
2022/10/04 05:13:43;;;;;;;12.17;5.03;;;;;;;9.55;79.24;100378.70;124825;1099;104044;-77
2022/10/04 05:16:20;;;;;;;12.97;5.80;;;;;;;9.61;79.85;100372.82;124966;1099;102839;-77
2022/10/04 05:18:58;;;;;;;14.10;5.37;;;;;;;9.65;79.74;100382.59;124958;1099;104175;-77
2022/10/04 05:21:31;;;;;;;14.57;5.80;;;;;;;9.65;78.97;100391.33;124930;1099;104169;-77
2022/10/04 05:24:13;;;;;;;13.10;5.83;;;;;;;9.71;79.37;100396.80;125129;1099;104205;-78
2022/10/04 05:26:45;;;;;;;13.83;6.60;;;;;;;9.80;79.35;100395.35;124950;1099;103076;-78
2022/10/04 05:29:21;;;;;;;14.20;6.03;;;;;;;9.87;79.11;100397.38;124976;1099;102960;-78
2022/10/04 05:32:07;;;;;;;17.03;5.70;;;;;;;9.91;79.47;100401.91;125049;1099;104242;-78
2022/10/04 05:34:41;;;;;;;12.00;5.73;;;;;;;9.92;78.91;100402.78;124964;1099;104251;-78
2022/10/04 05:37:24;;;;;;;;;;;;;;;9.93;79.19;100404.59;124811;1099;104360;-76
2022/10/04 05:40:06;;;;;;;13.30;6.27;;;;;;;9.93;78.81;100413.33;124787;1099;104180;-76
2022/10/04 05:42:44;;;;;;;12.80;5.43;;;;;;;9.94;78.58;100409.88;124851;1099;111518;-76
2022/10/04 05:45:19;;;;;;;11.97;5.50;;;;;;;9.97;78.78;100412.62;124884;1099;102059;-78
2022/10/04 05:47:56;;;;;;;13.53;5.50;;;;;;;10.01;79.05;100419.73;124895;1099;104285;-77
2022/10/04 05:50:33;;;;;;;11.03;5.47;;;;;;;10.04;79.35;100424.21;124483;1099;104366;-77
2022/10/04 05:53:25;;;;;;;14.17;5.10;;;;;;;10.07;79.32;100429.56;124748;1099;102781;-77
2022/10/04 05:56:10;;;;;;;11.47;5.00;;;;;;;10.09;79.23;100435.75;126039;1098;102752;-77
2022/10/04 05:58:57;;;;;;;15.10;5.57;;;;;;;10.09;78.80;100430.50;124681;1099;104273;-78
2022/10/04 06:01:43;;;;;;;19.03;8.33;;;;;;;10.12;79.05;100429.73;125048;1099;104546;-77
2022/10/04 06:04:37;;;;;;;27.47;15.73;;;;;;;10.15;78.75;100435.09;124848;1099;104169;-77
2022/10/04 06:07:21;;;;;;;25.95;11.65;;;;;;;10.21;79.27;100443.18;124757;1099;104284;-78
2022/10/04 06:10:11;;;;;;;12.10;5.85;;;;;;;10.29;79.41;100440.84;124818;1099;102871;-79
2022/10/04 06:12:54;;;;;;;9.80;4.47;;;;;;;10.32;79.22;100439.20;124883;1098;104195;-77
2022/10/04 06:15:57;;;;;;;16.05;4.53;;;;;;;10.34;79.32;100450.66;124843;1099;104242;-75
2022/10/04 06:18:50;;;;;;;9.10;4.67;;;;;;;10.39;78.75;100456.99;124921;1099;104160;-77
2022/10/04 06:21:27;;;;;;;6.60;4.40;;;;;;;10.45;78.87;100455.41;124712;1099;104242;-74
2022/10/04 06:24:10;;;;;;;7.87;4.47;;;;;;;10.52;79.15;100457.42;124812;1099;104165;-76
2022/10/04 06:26:50;;;;;;;10.83;4.93;;;;;;;10.58;78.72;100457.61;124417;1099;104166;-76
2022/10/04 06:29:26;;;;;;;8.20;4.10;;;;;;;10.62;78.22;100472.63;124415;1102;103091;-77
2022/10/04 06:32:25;;;;;;;8.30;4.07;;;;;;;10.65;77.39;100477.99;124753;1099;104069;-76
2022/10/04 06:35:30;;;;;;;9.90;4.20;;;;;;;10.69;78.00;100469.39;124721;1099;102351;-75
2022/10/04 06:38:26;;;;;;;9.00;3.90;;;;;;;10.77;77.62;100474.91;124800;1099;104223;-76
2022/10/04 06:41:25;;;;;;;11.83;4.13;;;;;;;10.85;77.63;100477.80;124868;1099;103528;-76
2022/10/04 06:44:30;;;;;;;10.90;4.30;;;;;;;10.90;77.52;100477.09;124826;1099;119019;-75
2022/10/04 06:47:18;;;;;;;8.73;4.22;;;;;;;10.98;77.60;100469.48;124309;1099;104188;-75
2022/10/04 06:49:54;;;;;;;6.80;3.97;;;;;;;11.12;77.61;100483.95;124743;1099;102597;-75
2022/10/04 06:52:44;;;;;;;11.37;4.13;;;;;;;11.24;77.48;100478.23;124822;1099;104201;-75
2022/10/04 06:55:39;;;;;;;7.73;4.00;;;;;;;11.36;77.05;100471.58;124819;1098;104271;-77
2022/10/04 06:58:52;;;;;;;8.07;3.90;;;;;;;11.53;77.12;100477.37;124871;1099;104301;-77
2022/10/04 07:01:29;;;;;;;7.70;3.97;;;;;;;11.70;76.26;100489.29;124846;1098;103261;-77
2022/10/04 07:04:20;;;;;;;7.70;3.43;;;;;;;11.70;74.28;100470.89;124973;1099;104211;-77
2022/10/04 07:07:22;;;;;;;6.63;3.57;;;;;;;11.80;75.33;100470.34;124828;1099;104169;-78
2022/10/04 07:10:00;;;;;;;7.47;3.03;;;;;;;12.00;75.21;100480.61;125099;1099;104245;-77
2022/10/04 07:12:40;;;;;;;9.23;3.20;;;;;;;12.12;74.63;100475.67;124989;1099;102785;-75
2022/10/04 07:15:33;;;;;;;8.10;3.50;;;;;;;12.27;74.19;100476.98;124750;1099;104313;-75
2022/10/04 07:18:13;;;;;;;6.60;2.93;;;;;;;12.39;73.20;100487.86;126033;1098;101796;-75
2022/10/04 07:20:49;;;;;;;7.17;3.20;;;;;;;12.50;73.48;100480.27;126047;1098;104166;-76
2022/10/04 07:23:37;;;;;;;7.60;3.50;;;;;;;12.59;73.15;100494.56;124503;1099;104226;-75
2022/10/04 07:26:33;;;;;;;8.33;3.50;;;;;;;12.73;72.79;100492.30;124833;1099;102986;-77
2022/10/04 07:29:22;;;;;;;4.50;3.10;;;;;;;12.83;70.77;100496.06;125839;1098;104248;-78
2022/10/04 07:32:21;;;;;;;4.50;2.70;;;;;;;12.93;69.62;100498.09;125711;1099;104194;-77
2022/10/04 07:35:04;;;;;;;3.97;2.60;;;;;;;12.97;68.57;100495.55;124853;1099;102408;-76
2022/10/04 07:37:48;;;;;;;5.70;2.87;;;;;;;13.00;69.65;100503.52;124869;1099;102019;-77
2022/10/04 07:40:26;;;;;;;14.00;6.07;;;;;;;13.08;69.63;100502.85;124783;1098;102372;-76
2022/10/04 07:43:06;;;;;;;10.60;4.70;;;;;;;13.19;68.31;100500.48;124918;1098;104193;-77
2022/10/04 07:45:50;;;;;;;14.03;6.93;;;;;;;13.35;70.29;100500.91;125658;1099;102620;-76
2022/10/04 07:48:24;;;;;;;8.90;4.03;;;;;;;13.44;68.19;100494.09;124925;1099;102139;-77
2022/10/04 07:51:08;;;;;;;10.70;5.10;;;;;;;13.50;68.22;100510.94;124841;1098;102367;-78
2022/10/04 07:53:50;;;;;;;7.47;3.55;;;;;;;13.60;68.34;100512.92;124823;1099;104597;-76
2022/10/04 07:56:33;;;;;;;4.90;2.60;;;;;;;13.71;67.32;100526.36;125617;1099;104162;-77
2022/10/04 07:59:33;;;;;;;5.67;2.67;;;;;;;13.79;67.03;100516.86;124784;1099;103721;-79
2022/10/04 08:02:25;;;;;;;4.73;2.50;;;;;;;13.81;65.93;100517.81;125666;1099;104233;-76
2022/10/04 08:05:28;;;;;;;5.13;2.60;;;;;;;13.86;65.85;100521.44;125453;1099;104239;-79
2022/10/04 08:08:24;;;;;;;3.70;2.60;;;;;;;13.90;65.45;100510.11;125211;1099;103137;-78
2022/10/04 08:11:12;;;;;;;4.13;2.40;;;;;;;13.96;64.21;100518.16;125659;1099;103367;-76
2022/10/04 08:13:57;;;;;;;3.80;2.50;;;;;;;13.98;63.95;100523.47;125147;1099;104163;-78
2022/10/04 08:16:37;;;;;;;4.57;2.90;;;;;;;13.93;59.65;100541.84;125078;1099;104242;-77
2022/10/04 08:19:36;;;;;;;4.63;2.80;;;;;;;13.83;59.76;100527.52;124524;1099;102392;-78
2022/10/04 08:22:33;;;;;;;4.10;2.67;;;;;;;13.98;61.49;100534.02;125082;1098;104173;-79
2022/10/04 08:25:16;;;;;;;;;;;;;;;14.06;61.58;100536.83;125771;1099;104262;-80
2022/10/04 08:31:21;;;;;;;4.73;2.70;;;;;;;14.24;62.17;100531.05;127200;1098;101557;-79
2022/10/04 08:34:27;;;;;;;6.55;2.80;;;;;;;14.31;60.33;100536.48;126179;1099;104153;-78
2022/10/04 08:37:37;;;;;;;4.70;2.70;;;;;;;14.36;59.14;100537.47;125123;1102;119170;-78
2022/10/04 08:41:02;;;;;;;7.00;3.13;;;;;;;14.39;59.45;100540.16;125279;1099;104249;-77
2022/10/04 08:44:29;;;;;;;5.35;2.70;;;;;;;14.43;59.04;100542.88;125681;1099;104232;-79
2022/10/04 08:47:28;;;;;;;5.43;2.63;;;;;;;14.53;59.78;100536.94;125040;1101;112476;-77
2022/10/04 08:50:33;;;;;;;4.80;2.80;;;;;;;14.70;60.67;100539.95;124876;1098;102324;-77
2022/10/04 08:53:36;;;;;;;4.27;2.40;;;;;;;14.87;60.45;100542.91;124931;1099;104176;-78
2022/10/04 08:56:24;;;;;;;4.27;2.40;;;;;;;14.94;60.12;100539.50;124818;1098;104406;-78
2022/10/04 08:59:25;;;;;;;5.37;2.60;;;;;;;15.01;57.02;100551.09;125725;1099;104184;-78
2022/10/04 09:02:39;;;;;;;2.77;2.20;;;;;;;14.98;56.90;100551.04;125323;1097;102016;-77
2022/10/04 09:05:35;;;;;;;5.63;2.50;;;;;;;14.92;57.84;100539.47;125659;1099;104179;-77
2022/10/04 09:09:08;;;;;;;3.03;2.23;;;;;;;14.97;57.27;100538.68;124996;1099;104156;-76
2022/10/04 09:12:18;;;;;;;4.33;2.23;;;;;;;15.05;56.83;100540.61;124774;1099;104422;-77
2022/10/04 09:15:21;;;;;;;4.80;2.30;;;;;;;15.07;55.24;100541.52;124901;1099;104198;-78
2022/10/04 09:18:09;;;;;;;3.30;2.40;;;;;;;15.17;54.89;100547.85;124902;1098;111930;-78
2022/10/04 09:20:57;;;;;;;3.20;2.27;;;;;;;15.23;54.86;100547.08;125655;1098;104169;-78
2022/10/04 09:23:59;;;;;;;4.00;2.30;;;;;;;15.37;56.17;100544.67;124819;1099;102991;-77
2022/10/04 09:26:49;;;;;;;2.60;2.10;;;;;;;15.38;54.96;100546.43;124835;1099;104313;-77
2022/10/04 09:29:38;;;;;;;5.47;2.30;;;;;;;15.47;55.10;100546.59;124881;1099;104178;-78
2022/10/04 09:32:31;;;;;;;2.40;1.87;;;;;;;15.56;54.18;100540.57;125639;1099;105098;-79
2022/10/04 09:35:34;;;;;;;3.10;2.20;;;;;;;15.62;53.36;100548.61;124911;1099;103209;-78
2022/10/04 09:38:40;;;;;;;2.90;2.13;;;;;;;15.69;53.46;100557.52;124991;1099;102764;-79
2022/10/04 09:41:47;;;;;;;14.53;8.53;;;;;;;15.73;53.39;100548.77;124578;1099;104499;-79
2022/10/04 09:44:57;;;;;;;12.33;7.63;;;;;;;15.75;51.71;100558.52;125678;1099;102261;-78
2022/10/04 09:47:47;;;;;;;9.93;4.73;;;;;;;15.77;51.67;100562.11;125164;1099;102531;-80
2022/10/04 09:50:58;;;;;;;5.87;3.43;;;;;;;15.79;52.71;100565.66;126556;1099;104293;-78
2022/10/04 09:53:45;;;;;;;5.67;3.30;;;;;;;15.88;51.20;100574.59;125768;1099;102671;-78
2022/10/04 09:56:32;;;;;;;2.90;2.20;;;;;;;15.83;51.09;100560.41;125663;1099;104197;-78
2022/10/04 09:59:33;;;;;;;2.93;2.00;;;;;;;15.87;50.97;100560.48;126039;1098;104181;-79
2022/10/04 10:02:43;;;;;;;2.43;2.23;;;;;;;15.91;49.59;100567.61;124829;1099;102874;-79
2022/10/04 10:05:34;;;;;;;2.77;1.87;;;;;;;16.02;50.62;100567.77;125203;1099;102038;-78
2022/10/04 10:08:31;;;;;;;3.00;2.00;;;;;;;16.06;50.31;100566.05;125650;1098;105061;-78
2022/10/04 10:14:24;;;;;;;2.87;2.13;;;;;;;16.23;50.45;100566.28;125256;1099;104333;-78
2022/10/04 10:17:16;;;;;;;2.73;2.00;;;;;;;16.26;49.68;100572.50;125747;1098;102487;-78
2022/10/04 10:20:30;;;;;;;4.53;2.00;;;;;;;16.31;49.90;100572.56;124924;1098;103657;-78
2022/10/04 10:23:36;;;;;;;3.43;1.90;;;;;;;16.32;48.37;100563.77;124899;1102;104328;-78
2022/10/04 10:26:34;;;;;;;6.17;1.93;;;;;;;16.39;49.68;100562.95;125043;1099;103710;-78
2022/10/04 10:29:48;;;;;;;2.47;1.80;;;;;;;16.53;49.76;100558.74;125470;1099;104156;-79
2022/10/04 10:33:03;;;;;;;2.47;1.77;;;;;;;16.68;49.24;100578.33;125511;1099;104246;-78
2022/10/04 10:35:52;;;;;;;5.90;3.53;;;;;;;16.71;47.77;100583.67;124838;1099;104211;-76
2022/10/04 10:38:43;;;;;;;2.87;2.43;;;;;;;16.58;48.64;100579.08;124757;1099;104235;-76
2022/10/04 10:41:54;;;;;;;4.33;3.00;;;;;;;16.56;47.79;100575.53;124918;1099;104069;-78
2022/10/04 10:44:45;;;;;;;2.93;2.23;;;;;;;16.50;48.97;100573.69;124877;1099;104194;-78
2022/10/04 10:47:42;;;;;;;4.72;2.83;;;;;;;16.60;48.53;100580.89;125728;1099;104179;-77
2022/10/04 10:50:58;;;;;;;7.40;4.40;;;;;;;16.74;48.31;100582.83;125658;1099;102413;-77
2022/10/04 10:54:18;;;;;;;5.03;1.87;;;;;;;16.86;48.57;100575.94;125651;1098;104169;-76
2022/10/04 10:57:06;;;;;;;2.73;1.93;;;;;;;17.02;48.38;100576.10;124875;1099;102348;-76
2022/10/04 11:00:16;;;;;;;2.43;1.90;;;;;;;17.14;48.67;100577.97;125464;1099;102743;-77
2022/10/04 11:03:54;;;;;;;2.83;1.90;;;;;;;17.16;47.64;100576.25;124821;1099;104207;-77
2022/10/04 11:06:56;;;;;;;4.90;2.27;;;;;;;17.08;47.69;100570.87;124312;1101;104184;-78
2022/10/04 11:09:47;;;;;;;4.17;2.00;;;;;;;17.02;48.21;100571.68;124826;1098;104322;-78
2022/10/04 11:12:53;;;;;;;4.87;2.43;;;;;;;17.03;48.44;100570.81;124549;1099;104325;-77
2022/10/04 11:16:07;;;;;;;3.53;2.10;;;;;;;17.16;47.36;100574.47;124503;1099;104066;-75
2022/10/04 11:19:15;;;;;;;3.13;2.53;;;;;;;17.21;46.58;100572.75;125207;1099;104165;-76
2022/10/04 11:22:16;;;;;;;4.40;2.60;;;;;;;17.29;47.61;100571.94;124823;1099;104676;-77
2022/10/04 11:25:38;;;;;;;2.50;2.30;;;;;;;17.27;47.23;100568.40;124637;1099;104156;-77
2022/10/04 11:28:18;;;;;;;3.50;2.53;;;;;;;17.12;46.94;100579.73;124384;1099;104159;-77
2022/10/04 11:31:32;;;;;;;2.73;2.30;;;;;;;17.14;47.04;100576.23;124881;1099;104239;-75
2022/10/04 11:34:34;;;;;;;3.20;2.30;;;;;;;17.10;45.54;100590.31;125011;1099;104277;-76
2022/10/04 11:37:33;;;;;;;5.47;2.33;;;;;;;16.89;45.73;100591.88;124895;1099;104293;-78
2022/10/04 11:40:36;;;;;;;6.33;2.60;;;;;;;16.80;46.92;100590.85;125399;1099;103163;-78
2022/10/04 11:43:43;;;;;;;4.57;2.87;;;;;;;16.79;46.26;100597.89;124944;1099;104236;-78
2022/10/04 11:46:34;;;;;;;3.63;2.80;;;;;;;16.73;46.12;100604.88;125640;1099;102354;-77
2022/10/04 11:49:51;;;;;;;6.00;2.90;;;;;;;16.60;45.31;100598.55;124917;1099;104239;-78
2022/10/04 11:53:02;;;;;;;4.00;2.70;;;;;;;16.61;45.16;100597.66;125710;1099;104299;-79
2022/10/04 11:56:05;;;;;;;6.87;3.07;;;;;;;16.66;46.33;100601.28;126971;1098;102148;-78
2022/10/04 11:59:12;;;;;;;4.87;2.90;;;;;;;16.76;46.60;100603.15;126183;1099;104262;-78
2022/10/04 12:02:16;;;;;;;3.50;2.63;;;;;;;16.83;46.26;100610.31;126322;1099;104147;-77
2022/10/04 12:05:25;;;;;;;4.57;2.60;;;;;;;16.84;46.02;100606.81;127271;1098;104085;-78
2022/10/04 12:08:21;;;;;;;4.83;2.77;;;;;;;16.82;46.21;100611.17;126401;1099;104159;-79
2022/10/04 12:12:35;;;;;;;4.43;3.10;;;;;;;16.94;45.91;100606.91;127513;1098;102198;-79
2022/10/04 12:14:39;;;;;;;5.77;3.63;;;;;;;17.03;46.90;100599.98;125979;1098;104174;-77
2022/10/04 12:17:44;;;;;;;6.63;2.93;;;;;;;17.11;46.00;100604.45;125725;1099;104259;-79
2022/10/04 12:20:50;;;;;;;5.17;2.90;;;;;;;17.14;46.74;100605.39;124646;1099;104229;-77
2022/10/04 12:24:03;;;;;;;5.03;3.30;;;;;;;17.05;45.12;100615.90;124622;1099;102612;-77
2022/10/04 12:27:01;;;;;;;5.40;3.80;;;;;;;16.93;45.70;100610.46;124818;1098;102986;-77
2022/10/04 12:30:01;;;;;;;6.33;3.70;;;;;;;16.91;45.67;100614.83;124799;1099;102625;-77
2022/10/04 12:32:43;;;;;;;6.20;3.33;;;;;;;16.91;45.76;100602.48;125129;1099;104208;-78
2022/10/04 12:35:29;;;;;;;7.33;3.77;;;;;;;16.92;46.06;100612.20;126245;1098;102784;-77
2022/10/04 12:38:47;;;;;;;10.13;5.47;;;;;;;16.90;45.99;100611.30;125119;1098;104195;-75
2022/10/04 12:41:39;;;;;;;9.67;5.50;;;;;;;16.88;45.86;100619.23;125210;1099;103212;-75
2022/10/04 12:44:29;;;;;;;8.43;4.87;;;;;;;16.94;45.79;100617.52;125906;1099;102473;-75
2022/10/04 12:47:32;;;;;;;7.17;3.40;;;;;;;16.97;45.53;100622.85;125465;1099;102736;-77
2022/10/04 12:50:18;;;;;;;6.77;3.13;;;;;;;16.93;45.31;100621.06;124808;1099;104230;-77
2022/10/04 12:53:07;;;;;;;6.03;3.23;;;;;;;16.95;45.25;100616.66;126379;1099;101784;-78